sensor_id;sensor_type;location;lat;lon;timestamp;temperature;humidity
12413;DHT22;13877;18.896;-99.222;2023-05-10T00:00:54;21.70;61.80
12413;DHT22;13877;18.896;-99.222;2023-05-10T00:03:22;22.40;59.50
12413;DHT22;13877;18.896;-99.222;2023-05-10T00:05:48;23.20;54.30
12413;DHT22;13877;18.896;-99.222;2023-05-10T00:08:16;24.10;48.30
12413;DHT22;13877;18.896;-99.222;2023-05-10T00:10:42;24.60;48.10
12413;DHT22;13877;18.896;-99.222;2023-05-10T00:13:13;25.30;46.90
12413;DHT22;13877;18.896;-99.222;2023-05-10T00:15:40;25.30;47.10
12413;DHT22;13877;18.896;-99.222;2023-05-10T00:18:07;23.00;57.80
12413;DHT22;13877;18.896;-99.222;2023-05-10T00:20:34;21.40;66.10
12413;DHT22;13877;18.896;-99.222;2023-05-10T00:23:01;20.50;77.30
12413;DHT22;13877;18.896;-99.222;2023-05-10T00:25:28;20.20;93.40
12413;DHT22;13877;18.896;-99.222;2023-05-10T00:27:54;21.00;99.60
12413;DHT22;13877;18.896;-99.222;2023-05-10T00:30:23;21.10;99.90
12413;DHT22;13877;18.896;-99.222;2023-05-10T00:32:50;21.60;99.90
12413;DHT22;13877;18.896;-99.222;2023-05-10T00:35:18;21.80;99.90
12413;DHT22;13877;18.896;-99.222;2023-05-10T00:37:44;21.70;99.90
12413;DHT22;13877;18.896;-99.222;2023-05-10T00:40:12;21.50;99.90
12413;DHT22;13877;18.896;-99.222;2023-05-10T00:42:40;21.10;99.90
12413;DHT22;13877;18.896;-99.222;2023-05-10T00:45:07;21.20;99.90
12413;DHT22;13877;18.896;-99.222;2023-05-10T00:47:35;21.40;99.90
12413;DHT22;13877;18.896;-99.222;2023-05-10T00:50:03;21.60;99.90
12413;DHT22;13877;18.896;-99.222;2023-05-10T00:52:31;21.70;99.90
12413;DHT22;13877;18.896;-99.222;2023-05-10T00:54:58;22.20;99.90
12413;DHT22;13877;18.896;-99.222;2023-05-10T00:57:26;22.70;99.90
12413;DHT22;13877;18.896;-99.222;2023-05-10T00:59:53;22.60;99.90
12413;DHT22;13877;18.896;-99.222;2023-05-10T01:02:20;22.70;99.90
12413;DHT22;13877;18.896;-99.222;2023-05-10T01:04:49;22.70;99.90
12413;DHT22;13877;18.896;-99.222;2023-05-10T01:07:16;23.00;99.20
12413;DHT22;13877;18.896;-99.222;2023-05-10T01:09:43;23.20;97.50
12413;DHT22;13877;18.896;-99.222;2023-05-10T01:12:11;23.70;94.10
12413;DHT22;13877;18.896;-99.222;2023-05-10T01:14:38;23.90;92.30
12413;DHT22;13877;18.896;-99.222;2023-05-10T01:17:07;24.00;90.00
12413;DHT22;13877;18.896;-99.222;2023-05-10T01:19:36;24.00;87.40
12413;DHT22;13877;18.896;-99.222;2023-05-10T01:22:20;24.20;80.00
12413;DHT22;13877;18.896;-99.222;2023-05-10T01:33:30;24.30;71.90
12413;DHT22;13877;18.896;-99.222;2023-05-10T01:39:22;24.40;68.80
12413;DHT22;13877;18.896;-99.222;2023-05-10T01:41:56;24.40;66.40
12413;DHT22;13877;18.896;-99.222;2023-05-10T01:47:43;24.20;68.80
12413;DHT22;13877;18.896;-99.222;2023-05-10T01:50:22;24.10;67.50
12413;DHT22;13877;18.896;-99.222;2023-05-10T01:52:54;24.00;66.50
12413;DHT22;13877;18.896;-99.222;2023-05-10T01:55:24;23.90;66.20
12413;DHT22;13877;18.896;-99.222;2023-05-10T01:58:01;23.90;66.60
12413;DHT22;13877;18.896;-99.222;2023-05-10T02:00:29;23.80;70.40
12413;DHT22;13877;18.896;-99.222;2023-05-10T02:02:56;23.70;71.00
12413;DHT22;13877;18.896;-99.222;2023-05-10T02:05:24;23.70;70.20
12413;DHT22;13877;18.896;-99.222;2023-05-10T02:07:54;23.60;70.00
12413;DHT22;13877;18.896;-99.222;2023-05-10T02:10:21;23.70;69.90
12413;DHT22;13877;18.896;-99.222;2023-05-10T02:12:49;23.60;69.20
12413;DHT22;13877;18.896;-99.222;2023-05-10T02:15:22;23.50;69.50
12413;DHT22;13877;18.896;-99.222;2023-05-10T02:17:50;23.50;69.20
12413;DHT22;13877;18.896;-99.222;2023-05-10T02:20:18;23.50;69.80
12413;DHT22;13877;18.896;-99.222;2023-05-10T02:22:48;23.50;72.50
12413;DHT22;13877;18.896;-99.222;2023-05-10T02:25:15;23.30;73.10
12413;DHT22;13877;18.896;-99.222;2023-05-10T02:27:45;23.10;71.00
12413;DHT22;13877;18.896;-99.222;2023-05-10T02:30:13;22.90;72.20
12413;DHT22;13877;18.896;-99.222;2023-05-10T02:32:41;22.80;72.70
12413;DHT22;13877;18.896;-99.222;2023-05-10T02:35:10;22.70;74.10
12413;DHT22;13877;18.896;-99.222;2023-05-10T02:37:38;22.60;74.50
12413;DHT22;13877;18.896;-99.222;2023-05-10T02:40:07;22.50;76.10
12413;DHT22;13877;18.896;-99.222;2023-05-10T02:42:37;22.40;74.90
12413;DHT22;13877;18.896;-99.222;2023-05-10T02:45:24;22.50;75.90
12413;DHT22;13877;18.896;-99.222;2023-05-10T02:47:52;22.50;74.50
12413;DHT22;13877;18.896;-99.222;2023-05-10T02:50:22;22.60;72.20
12413;DHT22;13877;18.896;-99.222;2023-05-10T02:53:01;22.50;73.40
12413;DHT22;13877;18.896;-99.222;2023-05-10T02:55:35;22.60;69.40
12413;DHT22;13877;18.896;-99.222;2023-05-10T02:58:03;22.70;69.70
12413;DHT22;13877;18.896;-99.222;2023-05-10T03:00:31;22.80;67.50
12413;DHT22;13877;18.896;-99.222;2023-05-10T03:03:17;22.70;64.40
12413;DHT22;13877;18.896;-99.222;2023-05-10T03:06:04;22.90;62.00
12413;DHT22;13877;18.896;-99.222;2023-05-10T03:08:51;23.10;61.80
12413;DHT22;13877;18.896;-99.222;2023-05-10T03:17:17;23.50;56.80
12413;DHT22;13877;18.896;-99.222;2023-05-10T03:19:55;23.60;56.60
12413;DHT22;13877;18.896;-99.222;2023-05-10T03:22:33;23.60;56.10
12413;DHT22;13877;18.896;-99.222;2023-05-10T03:25:05;23.70;55.40
12413;DHT22;13877;18.896;-99.222;2023-05-10T03:27:35;23.70;54.00
12413;DHT22;13877;18.896;-99.222;2023-05-10T03:30:03;23.70;53.50
12413;DHT22;13877;18.896;-99.222;2023-05-10T03:32:33;23.70;52.70
12413;DHT22;13877;18.896;-99.222;2023-05-10T03:35:06;23.80;52.20
12413;DHT22;13877;18.896;-99.222;2023-05-10T03:37:33;23.80;51.80
12413;DHT22;13877;18.896;-99.222;2023-05-10T03:40:00;23.80;52.00
12413;DHT22;13877;18.896;-99.222;2023-05-10T03:42:29;23.80;52.30
12413;DHT22;13877;18.896;-99.222;2023-05-10T03:44:56;23.80;52.80
12413;DHT22;13877;18.896;-99.222;2023-05-10T03:47:24;23.80;52.70
12413;DHT22;13877;18.896;-99.222;2023-05-10T03:49:51;23.70;52.90
12413;DHT22;13877;18.896;-99.222;2023-05-10T03:52:18;23.50;52.80
12413;DHT22;13877;18.896;-99.222;2023-05-10T03:54:45;23.40;53.30
12413;DHT22;13877;18.896;-99.222;2023-05-10T03:57:12;23.20;54.00
12413;DHT22;13877;18.896;-99.222;2023-05-10T03:59:39;23.10;55.30
12413;DHT22;13877;18.896;-99.222;2023-05-10T04:02:06;22.90;56.90
12413;DHT22;13877;18.896;-99.222;2023-05-10T04:04:33;22.50;57.20
12413;DHT22;13877;18.896;-99.222;2023-05-10T04:07:00;22.30;58.10
12413;DHT22;13877;18.896;-99.222;2023-05-10T04:09:27;22.40;56.60
12413;DHT22;13877;18.896;-99.222;2023-05-10T04:11:53;22.40;58.70
12413;DHT22;13877;18.896;-99.222;2023-05-10T04:14:20;22.30;59.30
12413;DHT22;13877;18.896;-99.222;2023-05-10T04:16:47;22.10;59.80
12413;DHT22;13877;18.896;-99.222;2023-05-10T04:19:14;21.70;60.90
12413;DHT22;13877;18.896;-99.222;2023-05-10T04:21:41;21.60;61.80
12413;DHT22;13877;18.896;-99.222;2023-05-10T04:24:08;21.40;62.50
12413;DHT22;13877;18.896;-99.222;2023-05-10T04:26:35;21.20;63.10
12413;DHT22;13877;18.896;-99.222;2023-05-10T04:29:02;21.40;61.50
12413;DHT22;13877;18.896;-99.222;2023-05-10T04:31:29;21.90;63.10
12413;DHT22;13877;18.896;-99.222;2023-05-10T04:33:56;21.80;62.80
12413;DHT22;13877;18.896;-99.222;2023-05-10T04:36:23;21.80;62.90
12413;DHT22;13877;18.896;-99.222;2023-05-10T04:38:50;21.60;63.80
12413;DHT22;13877;18.896;-99.222;2023-05-10T04:41:17;21.50;64.80
12413;DHT22;13877;18.896;-99.222;2023-05-10T04:43:43;21.60;65.70
12413;DHT22;13877;18.896;-99.222;2023-05-10T04:46:10;21.60;66.20
12413;DHT22;13877;18.896;-99.222;2023-05-10T04:48:37;21.70;67.10
12413;DHT22;13877;18.896;-99.222;2023-05-10T04:51:04;21.60;68.30
12413;DHT22;13877;18.896;-99.222;2023-05-10T04:53:32;21.50;69.30
12413;DHT22;13877;18.896;-99.222;2023-05-10T04:55:59;21.30;69.60
12413;DHT22;13877;18.896;-99.222;2023-05-10T04:58:26;21.20;70.40
12413;DHT22;13877;18.896;-99.222;2023-05-10T05:00:53;21.00;71.40
12413;DHT22;13877;18.896;-99.222;2023-05-10T05:03:20;20.90;72.80
12413;DHT22;13877;18.896;-99.222;2023-05-10T05:05:48;20.80;73.80
12413;DHT22;13877;18.896;-99.222;2023-05-10T05:08:15;20.90;73.60
12413;DHT22;13877;18.896;-99.222;2023-05-10T05:10:42;21.00;74.00
12413;DHT22;13877;18.896;-99.222;2023-05-10T05:13:09;21.10;73.80
12413;DHT22;13877;18.896;-99.222;2023-05-10T05:15:36;21.10;73.80
12413;DHT22;13877;18.896;-99.222;2023-05-10T05:18:03;21.30;73.50
12413;DHT22;13877;18.896;-99.222;2023-05-10T05:20:32;21.30;73.00
12413;DHT22;13877;18.896;-99.222;2023-05-10T05:23:01;21.40;73.00
12413;DHT22;13877;18.896;-99.222;2023-05-10T05:25:28;21.40;72.50
12413;DHT22;13877;18.896;-99.222;2023-05-10T05:27:55;21.40;71.90
12413;DHT22;13877;18.896;-99.222;2023-05-10T05:30:22;21.30;72.00
12413;DHT22;13877;18.896;-99.222;2023-05-10T05:32:49;21.10;71.80
12413;DHT22;13877;18.896;-99.222;2023-05-10T05:35:15;21.00;72.00
12413;DHT22;13877;18.896;-99.222;2023-05-10T05:37:42;21.10;69.30
12413;DHT22;13877;18.896;-99.222;2023-05-10T05:40:12;21.30;69.20
12413;DHT22;13877;18.896;-99.222;2023-05-10T05:42:40;21.50;66.70
12413;DHT22;13877;18.896;-99.222;2023-05-10T05:45:07;21.70;67.10
12413;DHT22;13877;18.896;-99.222;2023-05-10T05:47:35;21.60;65.90
12413;DHT22;13877;18.896;-99.222;2023-05-10T05:50:01;21.40;66.50
12413;DHT22;13877;18.896;-99.222;2023-05-10T05:52:28;21.30;66.00
12413;DHT22;13877;18.896;-99.222;2023-05-10T05:54:56;21.40;67.00
12413;DHT22;13877;18.896;-99.222;2023-05-10T05:57:23;21.50;65.50
12413;DHT22;13877;18.896;-99.222;2023-05-10T05:59:50;21.50;65.40
12413;DHT22;13877;18.896;-99.222;2023-05-10T06:02:17;21.50;65.40
12413;DHT22;13877;18.896;-99.222;2023-05-10T06:04:44;21.60;65.20
12413;DHT22;13877;18.896;-99.222;2023-05-10T06:07:11;21.40;64.50
12413;DHT22;13877;18.896;-99.222;2023-05-10T06:09:37;21.50;63.90
12413;DHT22;13877;18.896;-99.222;2023-05-10T06:12:04;21.40;64.60
12413;DHT22;13877;18.896;-99.222;2023-05-10T06:14:31;21.20;66.30
12413;DHT22;13877;18.896;-99.222;2023-05-10T06:16:58;21.20;64.20
12413;DHT22;13877;18.896;-99.222;2023-05-10T06:19:26;21.20;63.90
12413;DHT22;13877;18.896;-99.222;2023-05-10T06:21:53;21.00;63.70
12413;DHT22;13877;18.896;-99.222;2023-05-10T06:24:20;20.90;64.70
12413;DHT22;13877;18.896;-99.222;2023-05-10T06:26:48;21.40;63.50
12413;DHT22;13877;18.896;-99.222;2023-05-10T06:29:16;21.30;64.30
12413;DHT22;13877;18.896;-99.222;2023-05-10T06:31:43;21.20;65.20
12413;DHT22;13877;18.896;-99.222;2023-05-10T06:34:09;21.20;63.90
12413;DHT22;13877;18.896;-99.222;2023-05-10T06:36:38;21.30;62.80
12413;DHT22;13877;18.896;-99.222;2023-05-10T06:39:05;21.20;63.40
12413;DHT22;13877;18.896;-99.222;2023-05-10T06:41:31;21.00;63.80
12413;DHT22;13877;18.896;-99.222;2023-05-10T06:43:58;21.00;64.50
12413;DHT22;13877;18.896;-99.222;2023-05-10T06:46:25;21.10;64.20
12413;DHT22;13877;18.896;-99.222;2023-05-10T06:48:52;21.20;65.90
12413;DHT22;13877;18.896;-99.222;2023-05-10T06:51:19;21.20;63.80
12413;DHT22;13877;18.896;-99.222;2023-05-10T06:53:47;21.20;63.00
12413;DHT22;13877;18.896;-99.222;2023-05-10T06:56:14;21.20;62.80
12413;DHT22;13877;18.896;-99.222;2023-05-10T06:58:41;21.30;61.90
12413;DHT22;13877;18.896;-99.222;2023-05-10T07:01:07;21.60;61.70
12413;DHT22;13877;18.896;-99.222;2023-05-10T07:03:34;21.60;62.30
12413;DHT22;13877;18.896;-99.222;2023-05-10T07:06:02;21.60;62.80
12413;DHT22;13877;18.896;-99.222;2023-05-10T07:08:33;21.30;62.60
12413;DHT22;13877;18.896;-99.222;2023-05-10T07:11:05;21.00;63.70
12413;DHT22;13877;18.896;-99.222;2023-05-10T07:13:34;20.80;64.60
12413;DHT22;13877;18.896;-99.222;2023-05-10T07:16:02;20.90;64.80
12413;DHT22;13877;18.896;-99.222;2023-05-10T07:18:29;21.60;62.40
12413;DHT22;13877;18.896;-99.222;2023-05-10T07:20:57;21.70;62.70
12413;DHT22;13877;18.896;-99.222;2023-05-10T07:23:24;21.80;62.10
12413;DHT22;13877;18.896;-99.222;2023-05-10T07:25:51;21.70;62.80
12413;DHT22;13877;18.896;-99.222;2023-05-10T07:28:19;21.30;64.10
12413;DHT22;13877;18.896;-99.222;2023-05-10T07:30:46;21.10;65.20
12413;DHT22;13877;18.896;-99.222;2023-05-10T07:33:14;21.50;63.70
12413;DHT22;13877;18.896;-99.222;2023-05-10T07:35:42;21.60;63.20
12413;DHT22;13877;18.896;-99.222;2023-05-10T07:38:09;21.80;63.10
12413;DHT22;13877;18.896;-99.222;2023-05-10T07:40:38;21.90;63.60
12413;DHT22;13877;18.896;-99.222;2023-05-10T07:43:05;21.50;65.50
12413;DHT22;13877;18.896;-99.222;2023-05-10T07:45:32;21.30;66.50
12413;DHT22;13877;18.896;-99.222;2023-05-10T07:47:59;21.20;67.10
12413;DHT22;13877;18.896;-99.222;2023-05-10T07:50:26;21.10;67.40
12413;DHT22;13877;18.896;-99.222;2023-05-10T07:52:53;21.00;66.80
12413;DHT22;13877;18.896;-99.222;2023-05-10T07:55:20;20.90;67.20
12413;DHT22;13877;18.896;-99.222;2023-05-10T07:57:47;20.90;67.30
12413;DHT22;13877;18.896;-99.222;2023-05-10T08:00:17;21.00;67.40
12413;DHT22;13877;18.896;-99.222;2023-05-10T08:02:45;21.10;65.90
12413;DHT22;13877;18.896;-99.222;2023-05-10T08:05:12;21.20;65.70
12413;DHT22;13877;18.896;-99.222;2023-05-10T08:07:40;21.30;65.40
12413;DHT22;13877;18.896;-99.222;2023-05-10T08:10:07;21.40;64.70
12413;DHT22;13877;18.896;-99.222;2023-05-10T08:12:38;21.50;64.60
12413;DHT22;13877;18.896;-99.222;2023-05-10T08:15:05;21.40;64.90
12413;DHT22;13877;18.896;-99.222;2023-05-10T08:17:33;21.20;65.80
12413;DHT22;13877;18.896;-99.222;2023-05-10T08:19:59;21.10;66.10
12413;DHT22;13877;18.896;-99.222;2023-05-10T08:22:26;21.10;66.70
12413;DHT22;13877;18.896;-99.222;2023-05-10T08:24:53;20.90;66.90
12413;DHT22;13877;18.896;-99.222;2023-05-10T08:27:20;20.70;67.10
12413;DHT22;13877;18.896;-99.222;2023-05-10T08:29:48;20.80;66.50
12413;DHT22;13877;18.896;-99.222;2023-05-10T08:32:14;20.70;65.70
12413;DHT22;13877;18.896;-99.222;2023-05-10T08:34:41;20.80;65.70
12413;DHT22;13877;18.896;-99.222;2023-05-10T08:37:08;20.70;64.60
12413;DHT22;13877;18.896;-99.222;2023-05-10T08:39:37;20.70;65.10
12413;DHT22;13877;18.896;-99.222;2023-05-10T08:42:05;20.60;65.20
12413;DHT22;13877;18.896;-99.222;2023-05-10T08:44:34;20.70;65.10
12413;DHT22;13877;18.896;-99.222;2023-05-10T08:47:06;20.70;65.20
12413;DHT22;13877;18.896;-99.222;2023-05-10T08:49:33;20.70;65.40
12413;DHT22;13877;18.896;-99.222;2023-05-10T08:52:03;20.60;65.80
12413;DHT22;13877;18.896;-99.222;2023-05-10T08:54:32;20.50;65.80
12413;DHT22;13877;18.896;-99.222;2023-05-10T08:57:00;20.30;66.50
12413;DHT22;13877;18.896;-99.222;2023-05-10T08:59:27;20.40;66.90
12413;DHT22;13877;18.896;-99.222;2023-05-10T09:01:57;20.20;68.10
12413;DHT22;13877;18.896;-99.222;2023-05-10T09:04:26;20.20;67.70
12413;DHT22;13877;18.896;-99.222;2023-05-10T09:06:53;20.30;67.30
12413;DHT22;13877;18.896;-99.222;2023-05-10T09:09:21;20.30;67.50
12413;DHT22;13877;18.896;-99.222;2023-05-10T09:11:48;20.40;67.80
12413;DHT22;13877;18.896;-99.222;2023-05-10T09:14:15;20.40;67.70
12413;DHT22;13877;18.896;-99.222;2023-05-10T09:16:43;20.40;68.40
12413;DHT22;13877;18.896;-99.222;2023-05-10T09:19:10;20.40;68.70
12413;DHT22;13877;18.896;-99.222;2023-05-10T09:21:37;20.20;68.30
12413;DHT22;13877;18.896;-99.222;2023-05-10T09:24:06;19.90;69.40
12413;DHT22;13877;18.896;-99.222;2023-05-10T09:26:33;19.80;67.80
12413;DHT22;13877;18.896;-99.222;2023-05-10T09:29:02;19.80;69.00
12413;DHT22;13877;18.896;-99.222;2023-05-10T09:32:02;19.80;67.90
12413;DHT22;13877;18.896;-99.222;2023-05-10T09:34:30;19.70;68.70
12413;DHT22;13877;18.896;-99.222;2023-05-10T09:37:00;19.60;68.30
12413;DHT22;13877;18.896;-99.222;2023-05-10T09:39:37;19.50;68.90
12413;DHT22;13877;18.896;-99.222;2023-05-10T09:42:06;19.50;69.00
12413;DHT22;13877;18.896;-99.222;2023-05-10T09:44:34;19.50;68.40
12413;DHT22;13877;18.896;-99.222;2023-05-10T09:47:01;19.50;68.40
12413;DHT22;13877;18.896;-99.222;2023-05-10T09:49:29;19.60;68.00
12413;DHT22;13877;18.896;-99.222;2023-05-10T09:52:04;19.50;68.40
12413;DHT22;13877;18.896;-99.222;2023-05-10T09:54:31;19.50;68.50
12413;DHT22;13877;18.896;-99.222;2023-05-10T09:56:58;19.40;68.70
12413;DHT22;13877;18.896;-99.222;2023-05-10T09:59:26;19.50;68.10
12413;DHT22;13877;18.896;-99.222;2023-05-10T10:01:56;19.50;65.90
12413;DHT22;13877;18.896;-99.222;2023-05-10T10:04:24;19.70;65.00
12413;DHT22;13877;18.896;-99.222;2023-05-10T10:07:05;19.70;63.80
12413;DHT22;13877;18.896;-99.222;2023-05-10T10:09:33;19.80;64.00
12413;DHT22;13877;18.896;-99.222;2023-05-10T10:12:01;19.80;63.60
12413;DHT22;13877;18.896;-99.222;2023-05-10T10:14:29;19.80;64.00
12413;DHT22;13877;18.896;-99.222;2023-05-10T10:16:56;19.80;62.60
12413;DHT22;13877;18.896;-99.222;2023-05-10T10:19:23;19.80;62.60
12413;DHT22;13877;18.896;-99.222;2023-05-10T10:21:50;19.80;61.90
12413;DHT22;13877;18.896;-99.222;2023-05-10T10:24:17;19.90;61.00
12413;DHT22;13877;18.896;-99.222;2023-05-10T10:26:45;19.80;61.90
12413;DHT22;13877;18.896;-99.222;2023-05-10T10:32:40;19.80;60.00
12413;DHT22;13877;18.896;-99.222;2023-05-10T10:35:09;19.90;60.10
12413;DHT22;13877;18.896;-99.222;2023-05-10T10:37:47;19.90;59.40
12413;DHT22;13877;18.896;-99.222;2023-05-10T10:40:30;19.80;59.70
12413;DHT22;13877;18.896;-99.222;2023-05-10T10:42:58;19.80;59.80
12413;DHT22;13877;18.896;-99.222;2023-05-10T10:48:34;19.80;60.80
12413;DHT22;13877;18.896;-99.222;2023-05-10T10:51:01;19.80;61.30
12413;DHT22;13877;18.896;-99.222;2023-05-10T10:53:28;19.70;61.50
12413;DHT22;13877;18.896;-99.222;2023-05-10T10:56:09;19.70;61.60
12413;DHT22;13877;18.896;-99.222;2023-05-10T10:58:40;19.80;61.40
12413;DHT22;13877;18.896;-99.222;2023-05-10T11:01:11;19.80;61.60
12413;DHT22;13877;18.896;-99.222;2023-05-10T11:03:39;19.80;62.10
12413;DHT22;13877;18.896;-99.222;2023-05-10T11:06:06;19.70;62.40
12413;DHT22;13877;18.896;-99.222;2023-05-10T11:08:42;19.50;62.60
12413;DHT22;13877;18.896;-99.222;2023-05-10T11:11:13;19.50;63.00
12413;DHT22;13877;18.896;-99.222;2023-05-10T11:13:45;19.50;62.80
12413;DHT22;13877;18.896;-99.222;2023-05-10T11:16:19;19.50;62.80
12413;DHT22;13877;18.896;-99.222;2023-05-10T11:19:10;19.50;63.00
12413;DHT22;13877;18.896;-99.222;2023-05-10T11:21:47;19.60;62.30
12413;DHT22;13877;18.896;-99.222;2023-05-10T11:24:19;19.80;62.40
12413;DHT22;13877;18.896;-99.222;2023-05-10T11:26:50;19.80;61.90
12413;DHT22;13877;18.896;-99.222;2023-05-10T11:29:17;19.70;62.10
12413;DHT22;13877;18.896;-99.222;2023-05-10T11:31:46;19.70;62.50
12413;DHT22;13877;18.896;-99.222;2023-05-10T11:34:30;19.60;62.40
12413;DHT22;13877;18.896;-99.222;2023-05-10T11:37:00;19.50;62.40
12413;DHT22;13877;18.896;-99.222;2023-05-10T11:39:29;19.60;62.60
12413;DHT22;13877;18.896;-99.222;2023-05-10T11:41:56;19.50;63.10
12413;DHT22;13877;18.896;-99.222;2023-05-10T11:44:24;19.60;62.50
12413;DHT22;13877;18.896;-99.222;2023-05-10T11:47:01;19.50;62.30
12413;DHT22;13877;18.896;-99.222;2023-05-10T11:49:28;19.60;62.20
12413;DHT22;13877;18.896;-99.222;2023-05-10T11:52:05;19.70;62.00
12413;DHT22;13877;18.896;-99.222;2023-05-10T11:54:33;19.70;62.00
12413;DHT22;13877;18.896;-99.222;2023-05-10T11:57:01;19.60;62.00
12413;DHT22;13877;18.896;-99.222;2023-05-10T11:59:28;19.60;62.20
12413;DHT22;13877;18.896;-99.222;2023-05-10T12:01:54;19.60;62.20
12413;DHT22;13877;18.896;-99.222;2023-05-10T12:04:22;19.60;62.40
12413;DHT22;13877;18.896;-99.222;2023-05-10T12:06:49;19.60;61.90
12413;DHT22;13877;18.896;-99.222;2023-05-10T12:09:16;19.60;63.30
12413;DHT22;13877;18.896;-99.222;2023-05-10T12:11:43;19.50;62.70
12413;DHT22;13877;18.896;-99.222;2023-05-10T12:14:10;19.50;63.10
12413;DHT22;13877;18.896;-99.222;2023-05-10T12:16:37;19.50;62.80
12413;DHT22;13877;18.896;-99.222;2023-05-10T12:19:04;19.60;62.30
12413;DHT22;13877;18.896;-99.222;2023-05-10T12:21:31;19.60;62.40
12413;DHT22;13877;18.896;-99.222;2023-05-10T12:24:04;19.70;62.50
12413;DHT22;13877;18.896;-99.222;2023-05-10T12:26:32;19.70;63.20
12413;DHT22;13877;18.896;-99.222;2023-05-10T12:29:18;19.60;63.30
12413;DHT22;13877;18.896;-99.222;2023-05-10T12:31:56;19.50;63.70
12413;DHT22;13877;18.896;-99.222;2023-05-10T12:34:34;19.50;64.50
12413;DHT22;13877;18.896;-99.222;2023-05-10T12:37:03;19.40;65.20
12413;DHT22;13877;18.896;-99.222;2023-05-10T12:39:44;19.40;64.40
12413;DHT22;13877;18.896;-99.222;2023-05-10T12:42:12;19.50;64.50
12413;DHT22;13877;18.896;-99.222;2023-05-10T12:44:39;19.60;64.70
12413;DHT22;13877;18.896;-99.222;2023-05-10T12:47:06;19.80;64.70
12413;DHT22;13877;18.896;-99.222;2023-05-10T12:49:33;19.90;63.70
12413;DHT22;13877;18.896;-99.222;2023-05-10T12:52:00;20.00;63.60
12413;DHT22;13877;18.896;-99.222;2023-05-10T12:54:27;20.20;63.60
12413;DHT22;13877;18.896;-99.222;2023-05-10T12:56:54;20.40;63.90
12413;DHT22;13877;18.896;-99.222;2023-05-10T12:59:21;20.60;64.30
12413;DHT22;13877;18.896;-99.222;2023-05-10T13:01:49;20.60;66.00
12413;DHT22;13877;18.896;-99.222;2023-05-10T13:04:15;20.50;66.30
12413;DHT22;13877;18.896;-99.222;2023-05-10T13:06:43;20.50;66.70
12413;DHT22;13877;18.896;-99.222;2023-05-10T13:09:09;20.60;67.50
12413;DHT22;13877;18.896;-99.222;2023-05-10T13:11:36;20.80;66.50
12413;DHT22;13877;18.896;-99.222;2023-05-10T13:14:03;21.10;66.80
12413;DHT22;13877;18.896;-99.222;2023-05-10T13:16:31;21.30;65.60
12413;DHT22;13877;18.896;-99.222;2023-05-10T13:18:58;21.50;64.70
12413;DHT22;13877;18.896;-99.222;2023-05-10T13:21:25;21.70;63.40
12413;DHT22;13877;18.896;-99.222;2023-05-10T13:23:52;21.90;67.00
12413;DHT22;13877;18.896;-99.222;2023-05-10T13:26:19;22.00;64.60
12413;DHT22;13877;18.896;-99.222;2023-05-10T13:28:46;22.00;65.90
12413;DHT22;13877;18.896;-99.222;2023-05-10T13:31:13;21.80;63.40
12413;DHT22;13877;18.896;-99.222;2023-05-10T13:33:40;21.90;65.30
12413;DHT22;13877;18.896;-99.222;2023-05-10T13:36:07;21.90;64.20
12413;DHT22;13877;18.896;-99.222;2023-05-10T13:38:34;21.90;62.90
12413;DHT22;13877;18.896;-99.222;2023-05-10T13:41:01;22.00;63.80
12413;DHT22;13877;18.896;-99.222;2023-05-10T13:43:29;22.20;63.90
12413;DHT22;13877;18.896;-99.222;2023-05-10T13:45:56;22.50;63.00
12413;DHT22;13877;18.896;-99.222;2023-05-10T13:48:23;22.70;63.70
12413;DHT22;13877;18.896;-99.222;2023-05-10T13:50:49;23.00;63.30
12413;DHT22;13877;18.896;-99.222;2023-05-10T13:53:16;23.20;61.70
12413;DHT22;13877;18.896;-99.222;2023-05-10T13:55:43;23.40;62.70
12413;DHT22;13877;18.896;-99.222;2023-05-10T13:58:10;23.60;62.80
12413;DHT22;13877;18.896;-99.222;2023-05-10T14:00:37;23.40;63.20
12413;DHT22;13877;18.896;-99.222;2023-05-10T14:03:04;23.80;62.50
12413;DHT22;13877;18.896;-99.222;2023-05-10T14:05:33;23.80;61.30
12413;DHT22;13877;18.896;-99.222;2023-05-10T14:07:59;23.80;62.10
12413;DHT22;13877;18.896;-99.222;2023-05-10T14:10:26;23.80;62.00
12413;DHT22;13877;18.896;-99.222;2023-05-10T14:12:53;23.80;61.50
12413;DHT22;13877;18.896;-99.222;2023-05-10T14:15:20;23.80;61.60
12413;DHT22;13877;18.896;-99.222;2023-05-10T14:17:47;24.20;60.90
12413;DHT22;13877;18.896;-99.222;2023-05-10T14:20:15;24.50;59.90
12413;DHT22;13877;18.896;-99.222;2023-05-10T14:22:42;24.70;59.40
12413;DHT22;13877;18.896;-99.222;2023-05-10T14:25:09;24.50;58.90
12413;DHT22;13877;18.896;-99.222;2023-05-10T14:27:36;24.50;58.90
12413;DHT22;13877;18.896;-99.222;2023-05-10T14:30:03;24.50;59.90
12413;DHT22;13877;18.896;-99.222;2023-05-10T14:32:30;24.70;58.70
12413;DHT22;13877;18.896;-99.222;2023-05-10T14:34:58;24.70;59.20
12413;DHT22;13877;18.896;-99.222;2023-05-10T14:37:25;25.10;58.60
12413;DHT22;13877;18.896;-99.222;2023-05-10T14:39:53;25.20;59.30
12413;DHT22;13877;18.896;-99.222;2023-05-10T14:42:20;25.50;58.60
12413;DHT22;13877;18.896;-99.222;2023-05-10T14:44:47;25.40;57.70
12413;DHT22;13877;18.896;-99.222;2023-05-10T14:47:14;25.50;57.30
12413;DHT22;13877;18.896;-99.222;2023-05-10T14:49:41;25.60;57.50
12413;DHT22;13877;18.896;-99.222;2023-05-10T14:52:08;25.60;57.00
12413;DHT22;13877;18.896;-99.222;2023-05-10T14:54:35;25.30;57.50
12413;DHT22;13877;18.896;-99.222;2023-05-10T14:57:02;25.60;57.30
12413;DHT22;13877;18.896;-99.222;2023-05-10T14:59:29;25.90;56.90
12413;DHT22;13877;18.896;-99.222;2023-05-10T15:01:55;26.00;56.40
12413;DHT22;13877;18.896;-99.222;2023-05-10T15:04:22;25.70;56.60
12413;DHT22;13877;18.896;-99.222;2023-05-10T15:06:49;26.10;56.20
12413;DHT22;13877;18.896;-99.222;2023-05-10T15:09:16;26.40;55.40
12413;DHT22;13877;18.896;-99.222;2023-05-10T15:11:43;26.20;54.90
12413;DHT22;13877;18.896;-99.222;2023-05-10T15:14:10;26.20;56.20
12413;DHT22;13877;18.896;-99.222;2023-05-10T15:16:37;26.70;54.80
12413;DHT22;13877;18.896;-99.222;2023-05-10T15:19:04;26.50;54.00
12413;DHT22;13877;18.896;-99.222;2023-05-10T15:21:31;26.90;53.60
12413;DHT22;13877;18.896;-99.222;2023-05-10T15:24:06;27.20;52.30
12413;DHT22;13877;18.896;-99.222;2023-05-10T15:26:33;27.20;52.40
12413;DHT22;13877;18.896;-99.222;2023-05-10T15:29:00;27.50;51.20
12413;DHT22;13877;18.896;-99.222;2023-05-10T15:31:27;27.60;50.20
12413;DHT22;13877;18.896;-99.222;2023-05-10T15:33:57;27.90;51.00
12413;DHT22;13877;18.896;-99.222;2023-05-10T15:36:27;27.90;50.60
12413;DHT22;13877;18.896;-99.222;2023-05-10T15:38:54;27.40;52.00